sensor_id;sensor_type;location;lat;lon;timestamp;P1;durP1;ratioP1;P2;durP2;ratioP2
76758;SDS011;65701;45.588;5.186;2023-02-15T00:00:04;55.50;;;44.50;;
76758;SDS011;65701;45.588;5.186;2023-02-15T00:02:31;51.75;;;43.25;;
76758;SDS011;65701;45.588;5.186;2023-02-15T00:04:56;51.75;;;41.75;;
76758;SDS011;65701;45.588;5.186;2023-02-15T00:07:21;49.50;;;41.50;;
76758;SDS011;65701;45.588;5.186;2023-02-15T00:09:47;53.75;;;43.25;;
76758;SDS011;65701;45.588;5.186;2023-02-15T00:12:13;60.25;;;45.00;;
76758;SDS011;65701;45.588;5.186;2023-02-15T00:14:39;56.25;;;45.00;;
76758;SDS011;65701;45.588;5.186;2023-02-15T00:17:05;51.75;;;42.75;;
76758;SDS011;65701;45.588;5.186;2023-02-15T00:19:30;52.00;;;42.50;;
76758;SDS011;65701;45.588;5.186;2023-02-15T00:21:56;56.50;;;43.25;;
76758;SDS011;65701;45.588;5.186;2023-02-15T00:24:21;57.50;;;44.00;;
76758;SDS011;65701;45.588;5.186;2023-02-15T00:26:47;55.25;;;40.00;;
76758;SDS011;65701;45.588;5.186;2023-02-15T00:29:14;55.25;;;43.75;;
76758;SDS011;65701;45.588;5.186;2023-02-15T00:31:41;45.50;;;39.75;;
76758;SDS011;65701;45.588;5.186;2023-02-15T00:34:10;26.75;;;15.25;;
76758;SDS011;65701;45.588;5.186;2023-02-15T00:36:37;52.75;;;41.75;;
76758;SDS011;65701;45.588;5.186;2023-02-15T00:39:03;62.00;;;46.25;;
76758;SDS011;65701;45.588;5.186;2023-02-15T00:41:30;49.50;;;39.75;;
76758;SDS011;65701;45.588;5.186;2023-02-15T00:43:55;59.75;;;47.75;;
76758;SDS011;65701;45.588;5.186;2023-02-15T00:46:21;58.50;;;46.75;;
76758;SDS011;65701;45.588;5.186;2023-02-15T00:48:46;53.25;;;42.00;;
76758;SDS011;65701;45.588;5.186;2023-02-15T00:51:12;55.00;;;43.25;;
76758;SDS011;65701;45.588;5.186;2023-02-15T00:53:38;50.50;;;42.75;;
76758;SDS011;65701;45.588;5.186;2023-02-15T00:56:03;59.50;;;44.25;;
76758;SDS011;65701;45.588;5.186;2023-02-15T00:58:29;51.75;;;42.50;;
76758;SDS011;65701;45.588;5.186;2023-02-15T01:00:54;60.25;;;47.25;;
76758;SDS011;65701;45.588;5.186;2023-02-15T01:03:20;53.75;;;42.00;;
76758;SDS011;65701;45.588;5.186;2023-02-15T01:05:46;53.25;;;41.75;;
76758;SDS011;65701;45.588;5.186;2023-02-15T01:08:13;59.50;;;44.50;;
76758;SDS011;65701;45.588;5.186;2023-02-15T01:10:39;55.00;;;45.00;;
76758;SDS011;65701;45.588;5.186;2023-02-15T01:13:05;57.50;;;42.75;;
76758;SDS011;65701;45.588;5.186;2023-02-15T01:15:33;53.25;;;43.25;;
76758;SDS011;65701;45.588;5.186;2023-02-15T01:17:59;54.25;;;41.50;;
76758;SDS011;65701;45.588;5.186;2023-02-15T01:20:26;59.25;;;45.50;;
76758;SDS011;65701;45.588;5.186;2023-02-15T01:22:53;58.50;;;47.50;;
76758;SDS011;65701;45.588;5.186;2023-02-15T01:25:20;51.75;;;42.25;;
76758;SDS011;65701;45.588;5.186;2023-02-15T01:27:47;58.00;;;44.00;;
76758;SDS011;65701;45.588;5.186;2023-02-15T01:30:13;59.75;;;43.00;;
76758;SDS011;65701;45.588;5.186;2023-02-15T01:32:39;58.00;;;46.50;;
76758;SDS011;65701;45.588;5.186;2023-02-15T01:35:05;50.50;;;38.25;;
76758;SDS011;65701;45.588;5.186;2023-02-15T01:37:31;52.75;;;40.50;;
76758;SDS011;65701;45.588;5.186;2023-02-15T01:39:57;55.25;;;44.75;;
76758;SDS011;65701;45.588;5.186;2023-02-15T01:42:25;53.50;;;44.25;;
76758;SDS011;65701;45.588;5.186;2023-02-15T01:44:53;54.25;;;44.50;;
76758;SDS011;65701;45.588;5.186;2023-02-15T01:52:37;48.00;;;41.75;;
76758;SDS011;65701;45.588;5.186;2023-02-15T01:55:09;47.00;;;40.50;;
76758;SDS011;65701;45.588;5.186;2023-02-15T01:57:37;49.50;;;38.25;;
76758;SDS011;65701;45.588;5.186;2023-02-15T02:00:04;48.50;;;39.00;;
76758;SDS011;65701;45.588;5.186;2023-02-15T02:02:31;41.00;;;36.25;;
76758;SDS011;65701;45.588;5.186;2023-02-15T02:04:57;50.25;;;40.50;;
76758;SDS011;65701;45.588;5.186;2023-02-15T02:07:29;57.75;;;42.00;;
76758;SDS011;65701;45.588;5.186;2023-02-15T02:09:59;50.25;;;39.50;;
76758;SDS011;65701;45.588;5.186;2023-02-15T02:12:25;47.00;;;38.75;;
76758;SDS011;65701;45.588;5.186;2023-02-15T02:14:51;47.00;;;40.25;;
76758;SDS011;65701;45.588;5.186;2023-02-15T02:33:39;49.25;;;41.25;;
76758;SDS011;65701;45.588;5.186;2023-02-15T02:39:12;51.50;;;40.25;;
76758;SDS011;65701;45.588;5.186;2023-02-15T02:44:47;54.75;;;43.00;;
76758;SDS011;65701;45.588;5.186;2023-02-15T02:47:22;51.00;;;38.75;;
76758;SDS011;65701;45.588;5.186;2023-02-15T02:50:03;55.75;;;44.75;;
76758;SDS011;65701;45.588;5.186;2023-02-15T02:52:42;49.50;;;40.75;;
76758;SDS011;65701;45.588;5.186;2023-02-15T02:58:07;55.75;;;41.75;;
76758;SDS011;65701;45.588;5.186;2023-02-15T03:00:54;59.00;;;42.75;;
76758;SDS011;65701;45.588;5.186;2023-02-15T03:03:38;57.00;;;42.75;;
76758;SDS011;65701;45.588;5.186;2023-02-15T03:06:42;50.00;;;40.25;;
76758;SDS011;65701;45.588;5.186;2023-02-15T03:09:29;43.25;;;37.75;;
76758;SDS011;65701;45.588;5.186;2023-02-15T03:12:07;53.00;;;39.00;;
76758;SDS011;65701;45.588;5.186;2023-02-15T03:14:35;52.50;;;40.75;;
76758;SDS011;65701;45.588;5.186;2023-02-15T03:17:02;49.50;;;41.75;;
76758;SDS011;65701;45.588;5.186;2023-02-15T03:19:31;48.75;;;41.25;;
76758;SDS011;65701;45.588;5.186;2023-02-15T03:22:06;56.00;;;43.50;;
76758;SDS011;65701;45.588;5.186;2023-02-15T03:24:59;53.25;;;43.00;;
76758;SDS011;65701;45.588;5.186;2023-02-15T03:27:41;53.25;;;42.75;;
76758;SDS011;65701;45.588;5.186;2023-02-15T03:30:10;49.75;;;41.00;;
76758;SDS011;65701;45.588;5.186;2023-02-15T03:32:40;53.00;;;41.00;;
76758;SDS011;65701;45.588;5.186;2023-02-15T03:35:08;51.75;;;43.75;;
76758;SDS011;65701;45.588;5.186;2023-02-15T03:37:39;59.75;;;43.00;;
76758;SDS011;65701;45.588;5.186;2023-02-15T03:42:59;54.75;;;43.75;;
76758;SDS011;65701;45.588;5.186;2023-02-15T03:45:29;50.75;;;42.50;;
76758;SDS011;65701;45.588;5.186;2023-02-15T03:47:57;53.25;;;44.75;;
76758;SDS011;65701;45.588;5.186;2023-02-15T03:50:32;56.00;;;42.00;;
76758;SDS011;65701;45.588;5.186;2023-02-15T03:53:20;49.00;;;41.50;;
76758;SDS011;65701;45.588;5.186;2023-02-15T03:55:53;59.00;;;44.75;;
76758;SDS011;65701;45.588;5.186;2023-02-15T03:58:20;60.25;;;46.50;;
76758;SDS011;65701;45.588;5.186;2023-02-15T04:01:06;57.25;;;42.75;;
76758;SDS011;65701;45.588;5.186;2023-02-15T04:04:09;46.25;;;42.00;;
76758;SDS011;65701;45.588;5.186;2023-02-15T04:06:41;54.75;;;40.25;;
76758;SDS011;65701;45.588;5.186;2023-02-15T04:09:06;59.50;;;46.00;;
76758;SDS011;65701;45.588;5.186;2023-02-15T04:11:50;60.00;;;44.75;;
76758;SDS011;65701;45.588;5.186;2023-02-15T04:14:16;52.25;;;44.00;;
76758;SDS011;65701;45.588;5.186;2023-02-15T04:16:59;56.25;;;46.50;;
76758;SDS011;65701;45.588;5.186;2023-02-15T04:19:25;56.75;;;43.25;;
76758;SDS011;65701;45.588;5.186;2023-02-15T04:22:09;56.50;;;47.50;;
76758;SDS011;65701;45.588;5.186;2023-02-15T04:24:53;57.00;;;45.50;;
76758;SDS011;65701;45.588;5.186;2023-02-15T04:27:49;53.75;;;44.50;;
76758;SDS011;65701;45.588;5.186;2023-02-15T04:30:16;59.25;;;49.25;;
76758;SDS011;65701;45.588;5.186;2023-02-15T04:32:43;60.50;;;48.75;;
76758;SDS011;65701;45.588;5.186;2023-02-15T04:35:09;57.75;;;45.75;;
76758;SDS011;65701;45.588;5.186;2023-02-15T04:37:36;57.50;;;46.75;;
76758;SDS011;65701;45.588;5.186;2023-02-15T04:40:02;58.00;;;48.75;;
76758;SDS011;65701;45.588;5.186;2023-02-15T04:42:29;64.75;;;46.50;;
76758;SDS011;65701;45.588;5.186;2023-02-15T04:44:54;54.75;;;42.00;;
76758;SDS011;65701;45.588;5.186;2023-02-15T04:47:20;55.75;;;45.25;;
76758;SDS011;65701;45.588;5.186;2023-02-15T04:49:46;60.00;;;45.25;;
76758;SDS011;65701;45.588;5.186;2023-02-15T04:52:11;58.25;;;47.00;;
76758;SDS011;65701;45.588;5.186;2023-02-15T04:54:37;57.50;;;45.00;;
76758;SDS011;65701;45.588;5.186;2023-02-15T04:57:03;55.75;;;45.50;;
76758;SDS011;65701;45.588;5.186;2023-02-15T04:59:29;60.50;;;44.75;;
76758;SDS011;65701;45.588;5.186;2023-02-15T05:01:54;59.50;;;46.25;;
76758;SDS011;65701;45.588;5.186;2023-02-15T05:04:19;62.75;;;47.00;;
76758;SDS011;65701;45.588;5.186;2023-02-15T05:06:45;59.50;;;46.25;;
76758;SDS011;65701;45.588;5.186;2023-02-15T05:09:11;56.00;;;44.50;;
76758;SDS011;65701;45.588;5.186;2023-02-15T05:11:37;63.50;;;48.00;;
76758;SDS011;65701;45.588;5.186;2023-02-15T05:14:03;57.25;;;44.75;;
76758;SDS011;65701;45.588;5.186;2023-02-15T05:16:29;61.50;;;48.75;;
76758;SDS011;65701;45.588;5.186;2023-02-15T05:18:54;67.75;;;50.25;;
76758;SDS011;65701;45.588;5.186;2023-02-15T05:21:20;62.25;;;50.00;;
76758;SDS011;65701;45.588;5.186;2023-02-15T05:23:45;58.50;;;46.75;;
76758;SDS011;65701;45.588;5.186;2023-02-15T05:26:11;57.75;;;46.50;;
76758;SDS011;65701;45.588;5.186;2023-02-15T05:28:57;58.50;;;47.25;;
76758;SDS011;65701;45.588;5.186;2023-02-15T05:31:22;59.50;;;44.25;;
76758;SDS011;65701;45.588;5.186;2023-02-15T05:33:48;59.25;;;45.25;;
76758;SDS011;65701;45.588;5.186;2023-02-15T05:36:13;58.50;;;47.50;;
76758;SDS011;65701;45.588;5.186;2023-02-15T05:38:39;57.75;;;47.00;;
76758;SDS011;65701;45.588;5.186;2023-02-15T05:41:08;55.50;;;43.00;;
76758;SDS011;65701;45.588;5.186;2023-02-15T05:43:35;62.25;;;46.50;;
76758;SDS011;65701;45.588;5.186;2023-02-15T05:46:01;78.75;;;59.50;;
76758;SDS011;65701;45.588;5.186;2023-02-15T05:48:27;64.50;;;53.00;;
76758;SDS011;65701;45.588;5.186;2023-02-15T05:51:01;63.25;;;48.25;;
76758;SDS011;65701;45.588;5.186;2023-02-15T05:53:30;60.25;;;47.75;;
76758;SDS011;65701;45.588;5.186;2023-02-15T05:55:57;55.25;;;43.75;;
76758;SDS011;65701;45.588;5.186;2023-02-15T05:58:27;58.25;;;48.25;;
76758;SDS011;65701;45.588;5.186;2023-02-15T06:00:54;61.50;;;47.50;;
76758;SDS011;65701;45.588;5.186;2023-02-15T06:03:20;56.75;;;44.50;;
76758;SDS011;65701;45.588;5.186;2023-02-15T06:05:46;56.00;;;45.25;;
76758;SDS011;65701;45.588;5.186;2023-02-15T06:08:12;58.75;;;46.25;;
76758;SDS011;65701;45.588;5.186;2023-02-15T06:10:37;55.00;;;43.75;;
76758;SDS011;65701;45.588;5.186;2023-02-15T06:13:04;59.25;;;44.75;;
76758;SDS011;65701;45.588;5.186;2023-02-15T06:15:30;50.75;;;42.50;;
76758;SDS011;65701;45.588;5.186;2023-02-15T06:17:56;61.25;;;46.00;;
76758;SDS011;65701;45.588;5.186;2023-02-15T06:20:21;61.50;;;43.75;;
76758;SDS011;65701;45.588;5.186;2023-02-15T06:22:47;57.75;;;46.00;;
76758;SDS011;65701;45.588;5.186;2023-02-15T06:25:12;51.25;;;43.25;;
76758;SDS011;65701;45.588;5.186;2023-02-15T06:27:40;52.25;;;43.00;;
76758;SDS011;65701;45.588;5.186;2023-02-15T06:30:07;59.75;;;47.00;;
76758;SDS011;65701;45.588;5.186;2023-02-15T06:32:34;59.75;;;44.50;;
76758;SDS011;65701;45.588;5.186;2023-02-15T06:34:59;55.25;;;45.00;;
76758;SDS011;65701;45.588;5.186;2023-02-15T06:37:25;50.75;;;39.75;;
76758;SDS011;65701;45.588;5.186;2023-02-15T06:39:50;53.25;;;43.25;;
76758;SDS011;65701;45.588;5.186;2023-02-15T06:42:16;61.00;;;46.00;;
76758;SDS011;65701;45.588;5.186;2023-02-15T06:44:43;53.75;;;45.50;;
76758;SDS011;65701;45.588;5.186;2023-02-15T06:47:09;58.25;;;42.50;;
76758;SDS011;65701;45.588;5.186;2023-02-15T06:49:35;61.00;;;46.00;;
76758;SDS011;65701;45.588;5.186;2023-02-15T06:52:01;61.00;;;42.25;;
76758;SDS011;65701;45.588;5.186;2023-02-15T06:54:26;63.75;;;49.00;;
76758;SDS011;65701;45.588;5.186;2023-02-15T06:56:52;63.75;;;47.25;;
76758;SDS011;65701;45.588;5.186;2023-02-15T06:59:17;56.00;;;45.75;;
76758;SDS011;65701;45.588;5.186;2023-02-15T07:01:43;60.50;;;46.50;;
76758;SDS011;65701;45.588;5.186;2023-02-15T07:04:08;46.75;;;41.50;;
76758;SDS011;65701;45.588;5.186;2023-02-15T07:06:34;55.50;;;44.75;;
76758;SDS011;65701;45.588;5.186;2023-02-15T07:09:00;57.50;;;45.25;;
76758;SDS011;65701;45.588;5.186;2023-02-15T07:11:27;54.00;;;42.50;;
76758;SDS011;65701;45.588;5.186;2023-02-15T07:14:11;57.50;;;47.50;;
76758;SDS011;65701;45.588;5.186;2023-02-15T07:16:37;52.50;;;43.25;;
76758;SDS011;65701;45.588;5.186;2023-02-15T07:19:03;56.50;;;44.75;;
76758;SDS011;65701;45.588;5.186;2023-02-15T07:21:28;57.75;;;44.25;;
76758;SDS011;65701;45.588;5.186;2023-02-15T07:23:56;60.25;;;48.50;;
76758;SDS011;65701;45.588;5.186;2023-02-15T07:26:22;60.50;;;47.00;;
76758;SDS011;65701;45.588;5.186;2023-02-15T07:28:48;54.25;;;43.75;;
76758;SDS011;65701;45.588;5.186;2023-02-15T07:31:14;60.00;;;49.00;;
76758;SDS011;65701;45.588;5.186;2023-02-15T07:33:39;61.50;;;47.75;;
76758;SDS011;65701;45.588;5.186;2023-02-15T07:36:05;59.00;;;45.50;;
76758;SDS011;65701;45.588;5.186;2023-02-15T07:38:34;67.50;;;50.00;;
76758;SDS011;65701;45.588;5.186;2023-02-15T07:41:02;64.00;;;48.00;;
76758;SDS011;65701;45.588;5.186;2023-02-15T07:43:29;62.75;;;49.75;;
76758;SDS011;65701;45.588;5.186;2023-02-15T07:46:01;63.50;;;49.50;;
76758;SDS011;65701;45.588;5.186;2023-02-15T07:48:32;65.75;;;50.25;;
76758;SDS011;65701;45.588;5.186;2023-02-15T07:51:02;63.25;;;50.75;;
76758;SDS011;65701;45.588;5.186;2023-02-15T07:53:30;60.25;;;49.25;;
76758;SDS011;65701;45.588;5.186;2023-02-15T07:55:59;62.75;;;51.50;;
76758;SDS011;65701;45.588;5.186;2023-02-15T07:58:26;57.50;;;46.50;;
76758;SDS011;65701;45.588;5.186;2023-02-15T08:01:12;60.00;;;48.75;;
76758;SDS011;65701;45.588;5.186;2023-02-15T08:03:38;60.50;;;48.75;;
76758;SDS011;65701;45.588;5.186;2023-02-15T08:06:04;60.25;;;46.75;;
76758;SDS011;65701;45.588;5.186;2023-02-15T08:08:30;64.00;;;49.25;;
76758;SDS011;65701;45.588;5.186;2023-02-15T08:13:51;63.50;;;48.75;;
76758;SDS011;65701;45.588;5.186;2023-02-15T08:16:23;61.25;;;47.25;;
76758;SDS011;65701;45.588;5.186;2023-02-15T08:18:54;57.50;;;48.25;;
76758;SDS011;65701;45.588;5.186;2023-02-15T08:21:21;61.25;;;48.25;;
76758;SDS011;65701;45.588;5.186;2023-02-15T08:23:47;60.75;;;47.25;;
76758;SDS011;65701;45.588;5.186;2023-02-15T08:26:13;59.25;;;48.50;;
76758;SDS011;65701;45.588;5.186;2023-02-15T08:28:40;62.25;;;47.75;;
76758;SDS011;65701;45.588;5.186;2023-02-15T08:31:10;65.25;;;52.75;;
76758;SDS011;65701;45.588;5.186;2023-02-15T08:33:37;59.00;;;46.75;;
76758;SDS011;65701;45.588;5.186;2023-02-15T08:36:05;58.00;;;47.00;;
76758;SDS011;65701;45.588;5.186;2023-02-15T08:38:33;61.25;;;47.00;;
76758;SDS011;65701;45.588;5.186;2023-02-15T08:41:08;64.50;;;48.75;;
76758;SDS011;65701;45.588;5.186;2023-02-15T08:43:43;57.50;;;47.00;;
76758;SDS011;65701;45.588;5.186;2023-02-15T08:46:12;67.25;;;53.25;;
76758;SDS011;65701;45.588;5.186;2023-02-15T08:48:39;58.25;;;46.25;;
76758;SDS011;65701;45.588;5.186;2023-02-15T08:51:12;60.25;;;47.00;;
76758;SDS011;65701;45.588;5.186;2023-02-15T08:53:42;57.25;;;45.75;;
76758;SDS011;65701;45.588;5.186;2023-02-15T08:56:10;56.75;;;46.25;;
76758;SDS011;65701;45.588;5.186;2023-02-15T08:58:36;63.50;;;47.50;;
76758;SDS011;65701;45.588;5.186;2023-02-15T09:01:13;65.00;;;49.00;;
76758;SDS011;65701;45.588;5.186;2023-02-15T09:03:43;60.25;;;47.25;;
76758;SDS011;65701;45.588;5.186;2023-02-15T09:06:10;59.50;;;47.25;;
76758;SDS011;65701;45.588;5.186;2023-02-15T09:08:36;64.00;;;48.75;;
76758;SDS011;65701;45.588;5.186;2023-02-15T09:11:13;63.00;;;50.00;;
76758;SDS011;65701;45.588;5.186;2023-02-15T09:13:47;56.25;;;45.25;;
76758;SDS011;65701;45.588;5.186;2023-02-15T09:16:14;60.25;;;48.25;;
76758;SDS011;65701;45.588;5.186;2023-02-15T09:18:43;58.00;;;46.25;;
76758;SDS011;65701;45.588;5.186;2023-02-15T09:21:10;57.50;;;46.50;;
76758;SDS011;65701;45.588;5.186;2023-02-15T09:23:41;59.25;;;47.00;;
76758;SDS011;65701;45.588;5.186;2023-02-15T09:26:11;62.00;;;47.25;;
76758;SDS011;65701;45.588;5.186;2023-02-15T09:28:39;58.25;;;45.00;;
76758;SDS011;65701;45.588;5.186;2023-02-15T09:31:06;61.50;;;48.00;;
76758;SDS011;65701;45.588;5.186;2023-02-15T09:33:43;60.25;;;46.00;;
76758;SDS011;65701;45.588;5.186;2023-02-15T09:36:27;57.50;;;45.75;;
76758;SDS011;65701;45.588;5.186;2023-02-15T10:10:34;49.00;;;39.75;;
76758;SDS011;65701;45.588;5.186;2023-02-15T10:13:13;36.25;;;32.00;;
76758;SDS011;65701;45.588;5.186;2023-02-15T10:18:32;42.75;;;34.50;;
76758;SDS011;65701;45.588;5.186;2023-02-15T10:24:11;19.75;;;16.75;;
76758;SDS011;65701;45.588;5.186;2023-02-15T10:27:07;16.75;;;16.50;;
76758;SDS011;65701;45.588;5.186;2023-02-15T10:29:38;15.00;;;14.75;;
76758;SDS011;65701;45.588;5.186;2023-02-15T10:32:26;17.50;;;17.00;;
76758;SDS011;65701;45.588;5.186;2023-02-15T10:56:39;17.25;;;14.50;;
76758;SDS011;65701;45.588;5.186;2023-02-15T10:59:24;13.75;;;13.25;;
76758;SDS011;65701;45.588;5.186;2023-02-15T11:02:18;10.00;;;10.00;;
76758;SDS011;65701;45.588;5.186;2023-02-15T11:07:45;19.25;;;18.00;;
76758;SDS011;65701;45.588;5.186;2023-02-15T11:10:21;18.50;;;18.50;;
76758;SDS011;65701;45.588;5.186;2023-02-15T11:12:58;22.50;;;19.25;;
76758;SDS011;65701;45.588;5.186;2023-02-15T11:15:34;27.75;;;20.75;;
76758;SDS011;65701;45.588;5.186;2023-02-15T11:23:29;20.50;;;17.25;;
76758;SDS011;65701;45.588;5.186;2023-02-15T11:25:58;21.75;;;20.00;;
76758;SDS011;65701;45.588;5.186;2023-02-15T11:28:39;24.75;;;21.75;;
76758;SDS011;65701;45.588;5.186;2023-02-15T11:31:19;22.50;;;21.00;;
76758;SDS011;65701;45.588;5.186;2023-02-15T11:34:04;22.50;;;20.50;;
76758;SDS011;65701;45.588;5.186;2023-02-15T11:36:38;23.25;;;23.00;;
76758;SDS011;65701;45.588;5.186;2023-02-15T11:39:14;22.25;;;21.50;;
76758;SDS011;65701;45.588;5.186;2023-02-15T11:41:46;21.75;;;20.75;;
76758;SDS011;65701;45.588;5.186;2023-02-15T11:44:21;18.75;;;18.75;;
76758;SDS011;65701;45.588;5.186;2023-02-15T11:46:48;23.00;;;22.00;;
76758;SDS011;65701;45.588;5.186;2023-02-15T11:49:26;25.75;;;24.00;;
76758;SDS011;65701;45.588;5.186;2023-02-15T11:51:52;22.25;;;20.50;;
76758;SDS011;65701;45.588;5.186;2023-02-15T11:54:21;25.00;;;24.25;;
76758;SDS011;65701;45.588;5.186;2023-02-15T11:56:55;29.25;;;24.50;;
76758;SDS011;65701;45.588;5.186;2023-02-15T11:59:49;26.00;;;25.25;;
76758;SDS011;65701;45.588;5.186;2023-02-15T12:02:21;33.75;;;28.25;;
76758;SDS011;65701;45.588;5.186;2023-02-15T12:04:49;24.00;;;22.50;;
76758;SDS011;65701;45.588;5.186;2023-02-15T12:12:45;23.75;;;23.75;;
76758;SDS011;65701;45.588;5.186;2023-02-15T12:15:11;33.00;;;27.25;;
76758;SDS011;65701;45.588;5.186;2023-02-15T12:17:39;25.75;;;22.25;;
76758;SDS011;65701;45.588;5.186;2023-02-15T12:22:38;27.50;;;25.75;;
76758;SDS011;65701;45.588;5.186;2023-02-15T12:25:24;24.50;;;21.25;;
76758;SDS011;65701;45.588;5.186;2023-02-15T12:27:54;27.50;;;22.50;;
76758;SDS011;65701;45.588;5.186;2023-02-15T12:30:38;20.00;;;18.75;;
76758;SDS011;65701;45.588;5.186;2023-02-15T12:33:13;14.25;;;13.25;;
76758;SDS011;65701;45.588;5.186;2023-02-15T12:35:47;18.75;;;14.50;;
76758;SDS011;65701;45.588;5.186;2023-02-15T12:38:25;16.75;;;11.75;;
76758;SDS011;65701;45.588;5.186;2023-02-15T12:43:45;11.50;;;10.50;;
76758;SDS011;65701;45.588;5.186;2023-02-15T12:46:18;13.25;;;10.00;;
76758;SDS011;65701;45.588;5.186;2023-02-15T12:48:44;10.00;;;9.25;;
76758;SDS011;65701;45.588;5.186;2023-02-15T12:51:13;6.25;;;6.25;;
76758;SDS011;65701;45.588;5.186;2023-02-15T12:53:40;12.50;;;9.00;;
76758;SDS011;65701;45.588;5.186;2023-02-15T12:56:06;9.50;;;9.50;;
76758;SDS011;65701;45.588;5.186;2023-02-15T12:58:35;10.25;;;7.50;;
76758;SDS011;65701;45.588;5.186;2023-02-15T13:06:17;8.50;;;5.00;;
76758;SDS011;65701;45.588;5.186;2023-02-15T13:08:47;9.00;;;8.25;;
76758;SDS011;65701;45.588;5.186;2023-02-15T13:11:33;8.50;;;7.50;;
76758;SDS011;65701;45.588;5.186;2023-02-15T13:14:01;10.50;;;10.50;;
76758;SDS011;65701;45.588;5.186;2023-02-15T13:16:33;11.75;;;9.50;;
76758;SDS011;65701;45.588;5.186;2023-02-15T13:19:04;12.75;;;9.00;;
76758;SDS011;65701;45.588;5.186;2023-02-15T13:21:37;11.25;;;11.00;;
76758;SDS011;65701;45.588;5.186;2023-02-15T13:26:47;8.00;;;8.00;;
76758;SDS011;65701;45.588;5.186;2023-02-15T13:29:23;7.50;;;7.50;;
76758;SDS011;65701;45.588;5.186;2023-02-15T13:31:52;9.25;;;8.25;;
76758;SDS011;65701;45.588;5.186;2023-02-15T13:34:22;6.75;;;6.75;;
76758;SDS011;65701;45.588;5.186;2023-02-15T13:42:19;11.50;;;8.00;;
76758;SDS011;65701;45.588;5.186;2023-02-15T14:11:58;8.25;;;8.25;;
76758;SDS011;65701;45.588;5.186;2023-02-15T14:21:02;7.75;;;6.75;;
76758;SDS011;65701;45.588;5.186;2023-02-15T14:26:10;10.00;;;7.50;;
76758;SDS011;65701;45.588;5.186;2023-02-15T14:29:05;8.00;;;8.00;;
76758;SDS011;65701;45.588;5.186;2023-02-15T14:31:41;7.25;;;7.00;;
76758;SDS011;65701;45.588;5.186;2023-02-15T14:34:18;7.75;;;7.75;;
76758;SDS011;65701;45.588;5.186;2023-02-15T14:36:44;7.75;;;6.00;;
76758;SDS011;65701;45.588;5.186;2023-02-15T14:42:18;6.75;;;6.75;;
76758;SDS011;65701;45.588;5.186;2023-02-15T14:44:53;6.50;;;5.00;;
76758;SDS011;65701;45.588;5.186;2023-02-15T14:47:44;7.75;;;7.00;;
76758;SDS011;65701;45.588;5.186;2023-02-15T14:56:05;8.50;;;7.50;;
76758;SDS011;65701;45.588;5.186;2023-02-15T14:58:34;11.75;;;9.00;;
76758;SDS011;65701;45.588;5.186;2023-02-15T15:01:05;10.75;;;9.00;;
76758;SDS011;65701;45.588;5.186;2023-02-15T15:03:33;6.75;;;6.25;;
76758;SDS011;65701;45.588;5.186;2023-02-15T15:06:00;5.75;;;5.75;;
76758;SDS011;65701;45.588;5.186;2023-02-15T15:08:31;6.00;;;5.50;;
76758;SDS011;65701;45.588;5.186;2023-02-15T15:14:03;8.00;;;6.50;;
76758;SDS011;65701;45.588;5.186;2023-02-15T15:16:30;9.25;;;9.25;;
76758;SDS011;65701;45.588;5.186;2023-02-15T15:19:03;6.00;;;6.00;;
76758;SDS011;65701;45.588;5.186;2023-02-15T15:49:21;8.50;;;8.50;;
76758;SDS011;65701;45.588;5.186;2023-02-15T15:51:49;10.75;;;8.00;;
76758;SDS011;65701;45.588;5.186;2023-02-15T15:54:20;7.25;;;7.25;;
76758;SDS011;65701;45.588;5.186;2023-02-15T15:57:12;8.50;;;6.50;;
76758;SDS011;65701;45.588;5.186;2023-02-15T15:59:43;7.00;;;5.25;;
76758;SDS011;65701;45.588;5.186;2023-02-15T16:02:11;8.75;;;7.00;;
76758;SDS011;65701;45.588;5.186;2023-02-15T16:04:43;7.25;;;7.25;;
76758;SDS011;65701;45.588;5.186;2023-02-15T16:07:27;7.75;;;6.75;;
76758;SDS011;65701;45.588;5.186;2023-02-15T16:09:59;7.00;;;7.00;;
76758;SDS011;65701;45.588;5.186;2023-02-15T16:12:27;8.00;;;8.00;;
76758;SDS011;65701;45.588;5.186;2023-02-15T16:14:54;8.50;;;8.00;;
76758;SDS011;65701;45.588;5.186;2023-02-15T16:17:25;10.75;;;9.75;;
76758;SDS011;65701;45.588;5.186;2023-02-15T16:19:54;9.75;;;8.75;;
76758;SDS011;65701;45.588;5.186;2023-02-15T16:22:26;9.25;;;9.00;;
76758;SDS011;65701;45.588;5.186;2023-02-15T16:27:46;9.25;;;6.50;;
76758;SDS011;65701;45.588;5.186;2023-02-15T16:30:20;8.00;;;8.00;;
76758;SDS011;65701;45.588;5.186;2023-02-15T16:32:46;9.00;;;7.50;;
76758;SDS011;65701;45.588;5.186;2023-02-15T16:35:16;7.75;;;7.75;;
76758;SDS011;65701;45.588;5.186;2023-02-15T16:37:43;7.75;;;7.75;;
76758;SDS011;65701;45.588;5.186;2023-02-15T16:40:26;7.25;;;7.25;;
76758;SDS011;65701;45.588;5.186;2023-02-15T16:43:00;7.00;;;7.00;;
76758;SDS011;65701;45.588;5.186;2023-02-15T16:45:28;7.75;;;7.25;;
76758;SDS011;65701;45.588;5.186;2023-02-15T16:47:57;11.00;;;6.25;;
76758;SDS011;65701;45.588;5.186;2023-02-15T16:50:30;10.50;;;9.25;;
76758;SDS011;65701;45.588;5.186;2023-02-15T16:52:58;9.50;;;8.25;;
76758;SDS011;65701;45.588;5.186;2023-02-15T16:55:26;8.25;;;5.75;;
76758;SDS011;65701;45.588;5.186;2023-02-15T16:57:55;8.50;;;7.25;;
76758;SDS011;65701;45.588;5.186;2023-02-15T17:00:25;8.25;;;8.00;;
76758;SDS011;65701;45.588;5.186;2023-02-15T17:02:54;7.25;;;7.00;;
76758;SDS011;65701;45.588;5.186;2023-02-15T17:05:31;10.50;;;10.50;;
76758;SDS011;65701;45.588;5.186;2023-02-15T17:13:23;7.75;;;7.75;;
76758;SDS011;65701;45.588;5.186;2023-02-15T17:18:25;4.50;;;4.25;;
76758;SDS011;65701;45.588;5.186;2023-02-15T17:20:57;8.50;;;8.50;;
76758;SDS011;65701;45.588;5.186;2023-02-15T17:23:28;5.00;;;5.00;;
76758;SDS011;65701;45.588;5.186;2023-02-15T17:26:01;7.75;;;7.75;;
76758;SDS011;65701;45.588;5.186;2023-02-15T17:28:37;8.50;;;8.50;;
76758;SDS011;65701;45.588;5.186;2023-02-15T17:31:09;7.00;;;7.00;;
76758;SDS011;65701;45.588;5.186;2023-02-15T17:33:38;5.00;;;5.00;;
76758;SDS011;65701;45.588;5.186;2023-02-15T17:39:06;9.00;;;8.75;;
76758;SDS011;65701;45.588;5.186;2023-02-15T17:41:43;7.00;;;6.75;;
76758;SDS011;65701;45.588;5.186;2023-02-15T17:44:09;14.50;;;9.75;;
76758;SDS011;65701;45.588;5.186;2023-02-15T17:46:39;10.75;;;7.25;;
76758;SDS011;65701;45.588;5.186;2023-02-15T17:49:05;13.00;;;11.00;;
76758;SDS011;65701;45.588;5.186;2023-02-15T17:51:31;12.75;;;8.50;;
76758;SDS011;65701;45.588;5.186;2023-02-15T17:54:00;7.75;;;7.75;;
76758;SDS011;65701;45.588;5.186;2023-02-15T17:56:45;10.00;;;7.00;;
76758;SDS011;65701;45.588;5.186;2023-02-15T17:59:11;19.00;;;17.00;;
76758;SDS011;65701;45.588;5.186;2023-02-15T18:01:42;16.00;;;12.75;;
76758;SDS011;65701;45.588;5.186;2023-02-15T18:04:30;16.00;;;15.00;;
76758;SDS011;65701;45.588;5.186;2023-02-15T18:07:16;21.75;;;20.25;;
76758;SDS011;65701;45.588;5.186;2023-02-15T18:10:02;18.50;;;17.50;;
76758;SDS011;65701;45.588;5.186;2023-02-15T18:12:55;37.00;;;33.00;;
76758;SDS011;65701;45.588;5.186;2023-02-15T18:15:20;17.75;;;15.25;;
76758;SDS011;65701;45.588;5.186;2023-02-15T18:17:46;12.00;;;11.50;;
76758;SDS011;65701;45.588;5.186;2023-02-15T18:20:22;11.25;;;9.25;;
76758;SDS011;65701;45.588;5.186;2023-02-15T18:22:52;15.25;;;15.00;;